sensor_id;sensor_type;location;lat;lon;timestamp;P1;durP1;ratioP1;P2;durP2;ratioP2
313;SDS011;143;51.634;7.112;2022-12-18T00:01:12;103.35;;;43.00;;
313;SDS011;143;51.634;7.112;2022-12-18T00:03:41;90.28;;;41.20;;
313;SDS011;143;51.634;7.112;2022-12-18T00:06:07;94.03;;;43.78;;
313;SDS011;143;51.634;7.112;2022-12-18T00:08:34;84.95;;;41.97;;
313;SDS011;143;51.634;7.112;2022-12-18T00:11:08;98.03;;;43.75;;
313;SDS011;143;51.634;7.112;2022-12-18T00:13:36;100.68;;;44.53;;
313;SDS011;143;51.634;7.112;2022-12-18T00:16:07;100.20;;;48.60;;
313;SDS011;143;51.634;7.112;2022-12-18T00:18:36;105.20;;;44.60;;
313;SDS011;143;51.634;7.112;2022-12-18T00:21:03;93.43;;;41.80;;
313;SDS011;143;51.634;7.112;2022-12-18T00:23:31;103.85;;;45.83;;
313;SDS011;143;51.634;7.112;2022-12-18T00:25:58;100.57;;;41.55;;
313;SDS011;143;51.634;7.112;2022-12-18T00:28:25;89.32;;;40.28;;
313;SDS011;143;51.634;7.112;2022-12-18T00:30:59;85.45;;;39.97;;
313;SDS011;143;51.634;7.112;2022-12-18T00:33:28;88.18;;;39.53;;
313;SDS011;143;51.634;7.112;2022-12-18T00:35:54;83.73;;;39.97;;
313;SDS011;143;51.634;7.112;2022-12-18T00:38:25;82.28;;;36.85;;
313;SDS011;143;51.634;7.112;2022-12-18T00:40:51;75.30;;;37.47;;
313;SDS011;143;51.634;7.112;2022-12-18T00:43:17;87.25;;;41.83;;
313;SDS011;143;51.634;7.112;2022-12-18T00:45:42;82.03;;;40.92;;
313;SDS011;143;51.634;7.112;2022-12-18T00:48:09;78.55;;;39.08;;
313;SDS011;143;51.634;7.112;2022-12-18T00:50:35;84.50;;;39.23;;
313;SDS011;143;51.634;7.112;2022-12-18T00:53:01;85.95;;;38.80;;
313;SDS011;143;51.634;7.112;2022-12-18T00:55:27;78.17;;;37.40;;
313;SDS011;143;51.634;7.112;2022-12-18T00:57:54;79.43;;;36.47;;
313;SDS011;143;51.634;7.112;2022-12-18T01:00:21;76.38;;;36.65;;
313;SDS011;143;51.634;7.112;2022-12-18T01:02:47;84.05;;;38.75;;
313;SDS011;143;51.634;7.112;2022-12-18T01:05:13;76.10;;;37.65;;
313;SDS011;143;51.634;7.112;2022-12-18T01:07:40;73.57;;;36.10;;
313;SDS011;143;51.634;7.112;2022-12-18T01:10:06;69.72;;;34.97;;
313;SDS011;143;51.634;7.112;2022-12-18T01:12:34;69.50;;;36.28;;
313;SDS011;143;51.634;7.112;2022-12-18T01:15:00;77.47;;;38.40;;
313;SDS011;143;51.634;7.112;2022-12-18T01:17:27;76.40;;;36.45;;
313;SDS011;143;51.634;7.112;2022-12-18T01:19:53;78.30;;;37.10;;
313;SDS011;143;51.634;7.112;2022-12-18T01:22:19;70.78;;;36.13;;
313;SDS011;143;51.634;7.112;2022-12-18T01:24:45;80.60;;;36.13;;
313;SDS011;143;51.634;7.112;2022-12-18T01:27:11;66.72;;;34.85;;
313;SDS011;143;51.634;7.112;2022-12-18T01:29:37;75.13;;;36.30;;
313;SDS011;143;51.634;7.112;2022-12-18T01:32:03;66.33;;;34.10;;
313;SDS011;143;51.634;7.112;2022-12-18T01:34:29;64.82;;;33.38;;
313;SDS011;143;51.634;7.112;2022-12-18T01:36:55;76.40;;;35.73;;
313;SDS011;143;51.634;7.112;2022-12-18T01:39:21;71.60;;;34.97;;
313;SDS011;143;51.634;7.112;2022-12-18T01:41:48;65.50;;;34.13;;
313;SDS011;143;51.634;7.112;2022-12-18T01:50:14;69.95;;;34.53;;
313;SDS011;143;51.634;7.112;2022-12-18T01:52:56;67.15;;;34.80;;
313;SDS011;143;51.634;7.112;2022-12-18T01:55:31;70.78;;;35.58;;
313;SDS011;143;51.634;7.112;2022-12-18T01:58:01;67.88;;;33.28;;
313;SDS011;143;51.634;7.112;2022-12-18T02:00:28;71.65;;;34.70;;
313;SDS011;143;51.634;7.112;2022-12-18T02:02:55;65.47;;;34.85;;
313;SDS011;143;51.634;7.112;2022-12-18T02:08:08;64.25;;;33.17;;
313;SDS011;143;51.634;7.112;2022-12-18T02:10:44;69.45;;;34.88;;
313;SDS011;143;51.634;7.112;2022-12-18T02:18:57;62.97;;;33.10;;
313;SDS011;143;51.634;7.112;2022-12-18T02:27:12;71.75;;;32.65;;
313;SDS011;143;51.634;7.112;2022-12-18T02:29:40;61.05;;;30.70;;
313;SDS011;143;51.634;7.112;2022-12-18T02:32:15;61.30;;;28.25;;
313;SDS011;143;51.634;7.112;2022-12-18T02:34:49;43.50;;;25.52;;
313;SDS011;143;51.634;7.112;2022-12-18T02:37:17;51.75;;;25.80;;
313;SDS011;143;51.634;7.112;2022-12-18T02:39:46;50.33;;;27.00;;
313;SDS011;143;51.634;7.112;2022-12-18T02:42:14;90.32;;;41.53;;
313;SDS011;143;51.634;7.112;2022-12-18T02:44:45;94.57;;;43.78;;
313;SDS011;143;51.634;7.112;2022-12-18T02:47:14;90.57;;;42.17;;
313;SDS011;143;51.634;7.112;2022-12-18T03:03:05;84.90;;;42.03;;
313;SDS011;143;51.634;7.112;2022-12-18T03:05:34;89.50;;;42.25;;
313;SDS011;143;51.634;7.112;2022-12-18T03:10:54;72.32;;;34.70;;
313;SDS011;143;51.634;7.112;2022-12-18T03:13:36;64.72;;;34.17;;
313;SDS011;143;51.634;7.112;2022-12-18T03:16:04;69.40;;;35.70;;
313;SDS011;143;51.634;7.112;2022-12-18T03:18:56;76.53;;;36.22;;
313;SDS011;143;51.634;7.112;2022-12-18T03:21:43;68.30;;;34.58;;
313;SDS011;143;51.634;7.112;2022-12-18T03:24:18;73.35;;;34.40;;
313;SDS011;143;51.634;7.112;2022-12-18T03:26:47;60.97;;;32.03;;
313;SDS011;143;51.634;7.112;2022-12-18T03:35:10;63.45;;;31.80;;
313;SDS011;143;51.634;7.112;2022-12-18T03:37:42;74.25;;;32.75;;
313;SDS011;143;51.634;7.112;2022-12-18T03:40:08;57.90;;;30.43;;
313;SDS011;143;51.634;7.112;2022-12-18T03:42:56;60.67;;;32.85;;
313;SDS011;143;51.634;7.112;2022-12-18T03:45:32;64.30;;;31.48;;
313;SDS011;143;51.634;7.112;2022-12-18T03:48:02;64.68;;;33.08;;
313;SDS011;143;51.634;7.112;2022-12-18T03:50:46;63.03;;;30.92;;
313;SDS011;143;51.634;7.112;2022-12-18T03:56:14;68.00;;;35.22;;
313;SDS011;143;51.634;7.112;2022-12-18T03:58:42;69.63;;;34.75;;
313;SDS011;143;51.634;7.112;2022-12-18T04:01:12;70.18;;;34.72;;
313;SDS011;143;51.634;7.112;2022-12-18T04:03:41;66.13;;;34.55;;
313;SDS011;143;51.634;7.112;2022-12-18T04:06:08;73.25;;;35.05;;
313;SDS011;143;51.634;7.112;2022-12-18T04:08:36;64.88;;;33.80;;
313;SDS011;143;51.634;7.112;2022-12-18T04:11:03;61.13;;;33.88;;
313;SDS011;143;51.634;7.112;2022-12-18T04:13:32;62.97;;;34.05;;
313;SDS011;143;51.634;7.112;2022-12-18T04:16:02;64.55;;;33.45;;
313;SDS011;143;51.634;7.112;2022-12-18T04:18:28;72.10;;;36.08;;
313;SDS011;143;51.634;7.112;2022-12-18T04:20:55;70.30;;;35.58;;
313;SDS011;143;51.634;7.112;2022-12-18T04:23:20;68.43;;;35.40;;
313;SDS011;143;51.634;7.112;2022-12-18T04:25:47;64.45;;;31.58;;
313;SDS011;143;51.634;7.112;2022-12-18T04:28:13;66.95;;;35.22;;
313;SDS011;143;51.634;7.112;2022-12-18T04:30:39;61.50;;;33.60;;
313;SDS011;143;51.634;7.112;2022-12-18T04:33:12;54.10;;;30.52;;
313;SDS011;143;51.634;7.112;2022-12-18T04:35:39;66.70;;;31.85;;
313;SDS011;143;51.634;7.112;2022-12-18T04:38:06;55.47;;;29.27;;
313;SDS011;143;51.634;7.112;2022-12-18T04:40:37;53.95;;;29.33;;
313;SDS011;143;51.634;7.112;2022-12-18T04:43:08;58.47;;;31.73;;
313;SDS011;143;51.634;7.112;2022-12-18T04:45:37;56.20;;;30.02;;
313;SDS011;143;51.634;7.112;2022-12-18T04:48:05;56.33;;;31.50;;
313;SDS011;143;51.634;7.112;2022-12-18T04:50:32;62.95;;;31.45;;
313;SDS011;143;51.634;7.112;2022-12-18T04:52:57;62.53;;;33.08;;
313;SDS011;143;51.634;7.112;2022-12-18T04:55:25;65.20;;;32.47;;
313;SDS011;143;51.634;7.112;2022-12-18T04:57:51;58.97;;;31.67;;
313;SDS011;143;51.634;7.112;2022-12-18T05:00:17;61.13;;;32.38;;
313;SDS011;143;51.634;7.112;2022-12-18T05:02:43;59.13;;;29.88;;
313;SDS011;143;51.634;7.112;2022-12-18T05:05:10;66.68;;;31.75;;
313;SDS011;143;51.634;7.112;2022-12-18T05:07:36;60.67;;;30.48;;
313;SDS011;143;51.634;7.112;2022-12-18T05:10:03;60.15;;;30.52;;
313;SDS011;143;51.634;7.112;2022-12-18T05:12:31;60.40;;;32.47;;
313;SDS011;143;51.634;7.112;2022-12-18T05:14:56;48.77;;;27.90;;
313;SDS011;143;51.634;7.112;2022-12-18T05:17:23;51.03;;;28.63;;
313;SDS011;143;51.634;7.112;2022-12-18T05:19:52;57.25;;;29.67;;
313;SDS011;143;51.634;7.112;2022-12-18T05:22:20;57.80;;;29.55;;
313;SDS011;143;51.634;7.112;2022-12-18T05:24:49;55.90;;;31.30;;
313;SDS011;143;51.634;7.112;2022-12-18T05:27:15;54.78;;;27.45;;
313;SDS011;143;51.634;7.112;2022-12-18T05:29:41;56.42;;;28.88;;
313;SDS011;143;51.634;7.112;2022-12-18T05:32:07;53.37;;;30.03;;
313;SDS011;143;51.634;7.112;2022-12-18T05:34:33;58.40;;;28.90;;
313;SDS011;143;51.634;7.112;2022-12-18T05:36:59;47.63;;;27.20;;
313;SDS011;143;51.634;7.112;2022-12-18T05:39:24;48.93;;;25.63;;
313;SDS011;143;51.634;7.112;2022-12-18T05:41:50;41.63;;;24.57;;
313;SDS011;143;51.634;7.112;2022-12-18T05:44:16;43.77;;;25.93;;
313;SDS011;143;51.634;7.112;2022-12-18T05:46:42;35.50;;;21.20;;
313;SDS011;143;51.634;7.112;2022-12-18T05:49:08;41.93;;;23.70;;
313;SDS011;143;51.634;7.112;2022-12-18T05:51:34;38.15;;;22.58;;
313;SDS011;143;51.634;7.112;2022-12-18T05:54:00;56.83;;;28.23;;
313;SDS011;143;51.634;7.112;2022-12-18T05:56:26;52.05;;;28.77;;
313;SDS011;143;51.634;7.112;2022-12-18T05:58:52;47.93;;;26.73;;
313;SDS011;143;51.634;7.112;2022-12-18T06:01:21;46.60;;;25.40;;
313;SDS011;143;51.634;7.112;2022-12-18T06:03:49;47.70;;;24.45;;
313;SDS011;143;51.634;7.112;2022-12-18T06:06:16;43.20;;;23.95;;
313;SDS011;143;51.634;7.112;2022-12-18T06:08:48;46.53;;;23.38;;
313;SDS011;143;51.634;7.112;2022-12-18T06:11:16;45.38;;;24.58;;
313;SDS011;143;51.634;7.112;2022-12-18T06:13:45;47.08;;;25.38;;
313;SDS011;143;51.634;7.112;2022-12-18T06:16:11;47.78;;;25.52;;
313;SDS011;143;51.634;7.112;2022-12-18T06:18:37;48.73;;;25.70;;
313;SDS011;143;51.634;7.112;2022-12-18T06:21:04;41.17;;;24.70;;
313;SDS011;143;51.634;7.112;2022-12-18T06:23:30;43.60;;;23.90;;
313;SDS011;143;51.634;7.112;2022-12-18T06:25:56;53.90;;;27.30;;
313;SDS011;143;51.634;7.112;2022-12-18T06:28:22;41.37;;;24.13;;
313;SDS011;143;51.634;7.112;2022-12-18T06:30:48;47.50;;;26.05;;
313;SDS011;143;51.634;7.112;2022-12-18T06:33:15;47.63;;;26.58;;
313;SDS011;143;51.634;7.112;2022-12-18T06:35:41;42.60;;;25.27;;
313;SDS011;143;51.634;7.112;2022-12-18T06:38:08;44.28;;;25.48;;
313;SDS011;143;51.634;7.112;2022-12-18T06:40:34;50.38;;;25.20;;
313;SDS011;143;51.634;7.112;2022-12-18T06:43:04;40.63;;;25.20;;
313;SDS011;143;51.634;7.112;2022-12-18T06:45:30;41.60;;;24.73;;
313;SDS011;143;51.634;7.112;2022-12-18T06:47:57;46.92;;;24.48;;
313;SDS011;143;51.634;7.112;2022-12-18T06:50:23;45.40;;;23.73;;
313;SDS011;143;51.634;7.112;2022-12-18T06:52:48;46.30;;;22.90;;
313;SDS011;143;51.634;7.112;2022-12-18T06:55:14;37.87;;;22.33;;
313;SDS011;143;51.634;7.112;2022-12-18T06:57:40;39.90;;;22.77;;
313;SDS011;143;51.634;7.112;2022-12-18T07:00:06;46.00;;;21.73;;
313;SDS011;143;51.634;7.112;2022-12-18T07:02:32;38.15;;;21.65;;
313;SDS011;143;51.634;7.112;2022-12-18T07:04:58;44.53;;;23.13;;
313;SDS011;143;51.634;7.112;2022-12-18T07:07:24;39.97;;;21.10;;
313;SDS011;143;51.634;7.112;2022-12-18T07:09:50;35.13;;;20.70;;
313;SDS011;143;51.634;7.112;2022-12-18T07:12:16;36.70;;;21.45;;
313;SDS011;143;51.634;7.112;2022-12-18T07:14:42;38.00;;;21.33;;
313;SDS011;143;51.634;7.112;2022-12-18T07:17:07;33.40;;;21.23;;
313;SDS011;143;51.634;7.112;2022-12-18T07:19:33;34.47;;;20.05;;
313;SDS011;143;51.634;7.112;2022-12-18T07:21:59;38.10;;;21.40;;
313;SDS011;143;51.634;7.112;2022-12-18T07:24:25;39.20;;;20.92;;
313;SDS011;143;51.634;7.112;2022-12-18T07:26:51;33.60;;;19.90;;
313;SDS011;143;51.634;7.112;2022-12-18T07:29:17;37.50;;;19.80;;
313;SDS011;143;51.634;7.112;2022-12-18T07:31:43;36.43;;;20.87;;
313;SDS011;143;51.634;7.112;2022-12-18T07:34:10;36.03;;;19.63;;
313;SDS011;143;51.634;7.112;2022-12-18T07:36:39;36.55;;;19.40;;
313;SDS011;143;51.634;7.112;2022-12-18T07:39:04;35.10;;;19.90;;
313;SDS011;143;51.634;7.112;2022-12-18T07:41:30;34.17;;;19.87;;
313;SDS011;143;51.634;7.112;2022-12-18T07:43:56;32.60;;;17.07;;
313;SDS011;143;51.634;7.112;2022-12-18T07:46:22;35.70;;;19.63;;
313;SDS011;143;51.634;7.112;2022-12-18T07:48:48;42.13;;;22.27;;
313;SDS011;143;51.634;7.112;2022-12-18T07:51:14;45.40;;;22.63;;
313;SDS011;143;51.634;7.112;2022-12-18T07:53:40;48.13;;;27.10;;
313;SDS011;143;51.634;7.112;2022-12-18T07:56:07;50.73;;;25.80;;
313;SDS011;143;51.634;7.112;2022-12-18T07:58:35;42.72;;;24.05;;
313;SDS011;143;51.634;7.112;2022-12-18T08:01:09;38.00;;;22.00;;
313;SDS011;143;51.634;7.112;2022-12-18T08:03:36;38.38;;;20.75;;
313;SDS011;143;51.634;7.112;2022-12-18T08:06:04;30.92;;;19.00;;
313;SDS011;143;51.634;7.112;2022-12-18T08:08:32;33.75;;;19.05;;
313;SDS011;143;51.634;7.112;2022-12-18T08:10:58;34.25;;;17.95;;
313;SDS011;143;51.634;7.112;2022-12-18T08:13:24;34.87;;;18.60;;
313;SDS011;143;51.634;7.112;2022-12-18T08:15:57;31.80;;;18.63;;
313;SDS011;143;51.634;7.112;2022-12-18T08:18:24;32.13;;;17.92;;
313;SDS011;143;51.634;7.112;2022-12-18T08:20:50;31.85;;;17.48;;
313;SDS011;143;51.634;7.112;2022-12-18T08:23:16;28.90;;;16.07;;
313;SDS011;143;51.634;7.112;2022-12-18T08:25:41;28.90;;;16.13;;
313;SDS011;143;51.634;7.112;2022-12-18T08:28:07;27.70;;;16.20;;
313;SDS011;143;51.634;7.112;2022-12-18T08:30:33;28.73;;;14.77;;
313;SDS011;143;51.634;7.112;2022-12-18T08:32:58;27.77;;;16.07;;
313;SDS011;143;51.634;7.112;2022-12-18T08:35:24;25.03;;;14.70;;
313;SDS011;143;51.634;7.112;2022-12-18T08:37:49;24.83;;;15.57;;
313;SDS011;143;51.634;7.112;2022-12-18T08:40:15;30.40;;;14.87;;
313;SDS011;143;51.634;7.112;2022-12-18T08:42:41;29.40;;;14.60;;
313;SDS011;143;51.634;7.112;2022-12-18T08:45:25;26.88;;;15.10;;
313;SDS011;143;51.634;7.112;2022-12-18T08:47:51;25.42;;;15.23;;
313;SDS011;143;51.634;7.112;2022-12-18T08:50:17;32.30;;;16.10;;
313;SDS011;143;51.634;7.112;2022-12-18T08:52:42;33.20;;;16.70;;
313;SDS011;143;51.634;7.112;2022-12-18T08:55:08;22.43;;;13.97;;
313;SDS011;143;51.634;7.112;2022-12-18T08:57:34;27.00;;;14.55;;
313;SDS011;143;51.634;7.112;2022-12-18T09:00:00;21.00;;;12.40;;
313;SDS011;143;51.634;7.112;2022-12-18T09:02:26;21.93;;;12.07;;
313;SDS011;143;51.634;7.112;2022-12-18T09:04:51;20.73;;;11.57;;
313;SDS011;143;51.634;7.112;2022-12-18T09:07:17;19.80;;;10.67;;
313;SDS011;143;51.634;7.112;2022-12-18T09:09:43;16.93;;;10.30;;
313;SDS011;143;51.634;7.112;2022-12-18T09:12:08;20.70;;;12.47;;
313;SDS011;143;51.634;7.112;2022-12-18T09:14:34;20.83;;;11.03;;
313;SDS011;143;51.634;7.112;2022-12-18T09:17:00;17.70;;;10.13;;
313;SDS011;143;51.634;7.112;2022-12-18T09:19:26;14.83;;;9.17;;
313;SDS011;143;51.634;7.112;2022-12-18T09:21:52;15.80;;;8.93;;
313;SDS011;143;51.634;7.112;2022-12-18T09:24:17;16.70;;;8.83;;
313;SDS011;143;51.634;7.112;2022-12-18T09:26:43;17.23;;;9.13;;
313;SDS011;143;51.634;7.112;2022-12-18T09:29:09;15.90;;;9.00;;
313;SDS011;143;51.634;7.112;2022-12-18T09:31:35;20.93;;;9.17;;
313;SDS011;143;51.634;7.112;2022-12-18T09:34:01;18.33;;;8.90;;
313;SDS011;143;51.634;7.112;2022-12-18T09:36:27;19.30;;;9.47;;
313;SDS011;143;51.634;7.112;2022-12-18T09:38:53;14.50;;;8.93;;
313;SDS011;143;51.634;7.112;2022-12-18T09:44:01;20.48;;;9.77;;
313;SDS011;143;51.634;7.112;2022-12-18T09:46:37;18.73;;;8.55;;
313;SDS011;143;51.634;7.112;2022-12-18T09:49:11;15.75;;;8.68;;
313;SDS011;143;51.634;7.112;2022-12-18T09:54:25;15.15;;;8.55;;
313;SDS011;143;51.634;7.112;2022-12-18T09:56:57;18.58;;;9.10;;
313;SDS011;143;51.634;7.112;2022-12-18T09:59:24;13.50;;;8.03;;
313;SDS011;143;51.634;7.112;2022-12-18T10:01:54;15.95;;;9.10;;
313;SDS011;143;51.634;7.112;2022-12-18T10:04:21;14.82;;;8.27;;
313;SDS011;143;51.634;7.112;2022-12-18T10:06:54;14.30;;;7.90;;
313;SDS011;143;51.634;7.112;2022-12-18T10:09:37;15.70;;;8.93;;
313;SDS011;143;51.634;7.112;2022-12-18T10:12:55;13.10;;;7.10;;
313;SDS011;143;51.634;7.112;2022-12-18T10:15:58;13.75;;;7.50;;
313;SDS011;143;51.634;7.112;2022-12-18T10:27:07;18.98;;;8.40;;
313;SDS011;143;51.634;7.112;2022-12-18T10:29:54;13.40;;;8.13;;
313;SDS011;143;51.634;7.112;2022-12-18T10:32:25;19.83;;;8.52;;
313;SDS011;143;51.634;7.112;2022-12-18T10:34:56;17.50;;;8.68;;
313;SDS011;143;51.634;7.112;2022-12-18T10:37:27;20.58;;;8.52;;
313;SDS011;143;51.634;7.112;2022-12-18T10:40:14;13.65;;;8.27;;
313;SDS011;143;51.634;7.112;2022-12-18T10:42:44;16.33;;;9.57;;
313;SDS011;143;51.634;7.112;2022-12-18T10:45:12;20.35;;;10.38;;
313;SDS011;143;51.634;7.112;2022-12-18T10:47:45;14.38;;;8.00;;
313;SDS011;143;51.634;7.112;2022-12-18T10:50:26;15.02;;;9.10;;
313;SDS011;143;51.634;7.112;2022-12-18T10:53:05;18.30;;;9.00;;
313;SDS011;143;51.634;7.112;2022-12-18T10:55:40;16.88;;;9.75;;
313;SDS011;143;51.634;7.112;2022-12-18T10:58:16;22.75;;;9.80;;
313;SDS011;143;51.634;7.112;2022-12-18T11:01:25;17.13;;;9.68;;
313;SDS011;143;51.634;7.112;2022-12-18T11:04:08;13.68;;;8.13;;
313;SDS011;143;51.634;7.112;2022-12-18T11:06:35;17.23;;;10.30;;
313;SDS011;143;51.634;7.112;2022-12-18T11:09:37;19.25;;;10.30;;
313;SDS011;143;51.634;7.112;2022-12-18T11:12:05;17.63;;;9.35;;
313;SDS011;143;51.634;7.112;2022-12-18T11:14:50;17.05;;;9.75;;
313;SDS011;143;51.634;7.112;2022-12-18T11:17:21;18.48;;;9.20;;
313;SDS011;143;51.634;7.112;2022-12-18T11:20:01;15.65;;;9.35;;
313;SDS011;143;51.634;7.112;2022-12-18T11:22:33;16.88;;;9.85;;
313;SDS011;143;51.634;7.112;2022-12-18T11:25:23;18.50;;;10.07;;
313;SDS011;143;51.634;7.112;2022-12-18T11:27:56;18.15;;;9.20;;
313;SDS011;143;51.634;7.112;2022-12-18T11:32:58;20.10;;;9.95;;
313;SDS011;143;51.634;7.112;2022-12-18T11:35:35;18.33;;;9.93;;
313;SDS011;143;51.634;7.112;2022-12-18T11:38:05;18.55;;;9.75;;
313;SDS011;143;51.634;7.112;2022-12-18T11:40:56;17.23;;;9.23;;
313;SDS011;143;51.634;7.112;2022-12-18T11:43:58;16.73;;;8.30;;
313;SDS011;143;51.634;7.112;2022-12-18T11:46:37;16.00;;;9.15;;
313;SDS011;143;51.634;7.112;2022-12-18T11:51:46;19.55;;;9.68;;
313;SDS011;143;51.634;7.112;2022-12-18T11:54:20;15.75;;;8.50;;
313;SDS011;143;51.634;7.112;2022-12-18T11:56:48;17.70;;;9.70;;
313;SDS011;143;51.634;7.112;2022-12-18T12:01:54;16.92;;;8.40;;
313;SDS011;143;51.634;7.112;2022-12-18T12:12:35;16.80;;;10.25;;
313;SDS011;143;51.634;7.112;2022-12-18T12:26:45;17.80;;;9.10;;
313;SDS011;143;51.634;7.112;2022-12-18T12:29:46;16.48;;;8.98;;
313;SDS011;143;51.634;7.112;2022-12-18T12:34:57;20.15;;;10.13;;
313;SDS011;143;51.634;7.112;2022-12-18T12:39:55;21.10;;;10.45;;
313;SDS011;143;51.634;7.112;2022-12-18T12:42:27;18.65;;;9.63;;
313;SDS011;143;51.634;7.112;2022-12-18T12:45:28;16.27;;;9.38;;
313;SDS011;143;51.634;7.112;2022-12-18T12:48:01;22.52;;;11.43;;
313;SDS011;143;51.634;7.112;2022-12-18T12:50:29;16.75;;;10.00;;
313;SDS011;143;51.634;7.112;2022-12-18T12:52:59;21.67;;;10.25;;
313;SDS011;143;51.634;7.112;2022-12-18T12:55:30;21.60;;;11.25;;
313;SDS011;143;51.634;7.112;2022-12-18T13:00:50;19.65;;;8.80;;
313;SDS011;143;51.634;7.112;2022-12-18T13:06:18;17.85;;;9.45;;
313;SDS011;143;51.634;7.112;2022-12-18T13:09:01;15.73;;;8.35;;
313;SDS011;143;51.634;7.112;2022-12-18T13:11:37;15.93;;;10.27;;
313;SDS011;143;51.634;7.112;2022-12-18T13:14:23;16.35;;;8.45;;
313;SDS011;143;51.634;7.112;2022-12-18T13:16:52;20.85;;;10.63;;
313;SDS011;143;51.634;7.112;2022-12-18T13:19:37;21.98;;;8.15;;
313;SDS011;143;51.634;7.112;2022-12-18T13:22:03;14.27;;;8.20;;
313;SDS011;143;51.634;7.112;2022-12-18T13:24:30;16.90;;;8.40;;
313;SDS011;143;51.634;7.112;2022-12-18T13:26:56;18.70;;;8.02;;
313;SDS011;143;51.634;7.112;2022-12-18T13:29:41;16.47;;;9.47;;
313;SDS011;143;51.634;7.112;2022-12-18T13:32:22;18.63;;;9.10;;
313;SDS011;143;51.634;7.112;2022-12-18T13:35:07;17.90;;;9.50;;
313;SDS011;143;51.634;7.112;2022-12-18T13:37:53;16.08;;;9.40;;
313;SDS011;143;51.634;7.112;2022-12-18T13:40:39;20.02;;;9.55;;
313;SDS011;143;51.634;7.112;2022-12-18T13:48:41;16.90;;;9.82;;
313;SDS011;143;51.634;7.112;2022-12-18T13:51:20;16.23;;;8.40;;
313;SDS011;143;51.634;7.112;2022-12-18T13:53:48;18.80;;;9.57;;
313;SDS011;143;51.634;7.112;2022-12-18T13:56:26;18.50;;;8.98;;
313;SDS011;143;51.634;7.112;2022-12-18T14:01:58;18.02;;;8.45;;
313;SDS011;143;51.634;7.112;2022-12-18T14:04:36;16.67;;;9.02;;
313;SDS011;143;51.634;7.112;2022-12-18T14:09:37;20.00;;;10.60;;
313;SDS011;143;51.634;7.112;2022-12-18T14:12:13;19.52;;;9.43;;
313;SDS011;143;51.634;7.112;2022-12-18T14:15:06;18.80;;;10.40;;
313;SDS011;143;51.634;7.112;2022-12-18T14:17:59;18.45;;;10.43;;
313;SDS011;143;51.634;7.112;2022-12-18T14:20:28;18.75;;;10.38;;
313;SDS011;143;51.634;7.112;2022-12-18T14:22:57;17.58;;;9.35;;
313;SDS011;143;51.634;7.112;2022-12-18T14:25:24;15.15;;;9.70;;
313;SDS011;143;51.634;7.112;2022-12-18T14:30:35;17.20;;;9.85;;
313;SDS011;143;51.634;7.112;2022-12-18T14:33:09;19.65;;;12.43;;
313;SDS011;143;51.634;7.112;2022-12-18T14:35:56;21.58;;;11.68;;
313;SDS011;143;51.634;7.112;2022-12-18T14:38:29;22.45;;;10.18;;
313;SDS011;143;51.634;7.112;2022-12-18T14:41:03;18.75;;;9.27;;
313;SDS011;143;51.634;7.112;2022-12-18T14:43:36;20.17;;;11.40;;
313;SDS011;143;51.634;7.112;2022-12-18T14:46:04;22.35;;;12.18;;
313;SDS011;143;51.634;7.112;2022-12-18T14:48:50;21.08;;;10.55;;
313;SDS011;143;51.634;7.112;2022-12-18T14:51:23;22.23;;;10.80;;
313;SDS011;143;51.634;7.112;2022-12-18T14:58:46;23.27;;;11.63;;
313;SDS011;143;51.634;7.112;2022-12-18T15:01:18;15.20;;;9.82;;
313;SDS011;143;51.634;7.112;2022-12-18T15:03:45;20.83;;;10.88;;
313;SDS011;143;51.634;7.112;2022-12-18T15:06:17;18.87;;;9.90;;
313;SDS011;143;51.634;7.112;2022-12-18T15:08:50;21.98;;;11.38;;
313;SDS011;143;51.634;7.112;2022-12-18T15:14:21;18.15;;;11.15;;
313;SDS011;143;51.634;7.112;2022-12-18T15:16:54;24.08;;;11.38;;
313;SDS011;143;51.634;7.112;2022-12-18T15:19:21;18.10;;;10.18;;
313;SDS011;143;51.634;7.112;2022-12-18T15:21:50;21.70;;;10.90;;
313;SDS011;143;51.634;7.112;2022-12-18T15:24:24;18.77;;;10.70;;
313;SDS011;143;51.634;7.112;2022-12-18T15:26:54;22.08;;;12.32;;
313;SDS011;143;51.634;7.112;2022-12-18T15:29:21;20.93;;;10.67;;
313;SDS011;143;51.634;7.112;2022-12-18T15:32:00;23.40;;;13.18;;
313;SDS011;143;51.634;7.112;2022-12-18T15:34:28;19.88;;;10.82;;
313;SDS011;143;51.634;7.112;2022-12-18T15:36:54;18.30;;;10.70;;
313;SDS011;143;51.634;7.112;2022-12-18T15:39:19;19.67;;;11.07;;
313;SDS011;143;51.634;7.112;2022-12-18T15:41:45;30.53;;;12.60;;
313;SDS011;143;51.634;7.112;2022-12-18T15:44:30;23.75;;;11.70;;
313;SDS011;143;51.634;7.112;2022-12-18T15:46:56;22.80;;;11.30;;
313;SDS011;143;51.634;7.112;2022-12-18T15:49:22;22.15;;;12.02;;
313;SDS011;143;51.634;7.112;2022-12-18T15:51:49;24.03;;;12.63;;
313;SDS011;143;51.634;7.112;2022-12-18T15:54:18;21.33;;;10.38;;
313;SDS011;143;51.634;7.112;2022-12-18T15:57:07;25.30;;;11.82;;
313;SDS011;143;51.634;7.112;2022-12-18T15:59:51;22.85;;;11.45;;
313;SDS011;143;51.634;7.112;2022-12-18T16:02:18;21.33;;;10.88;;
313;SDS011;143;51.634;7.112;2022-12-18T16:04:45;22.42;;;11.25;;
313;SDS011;143;51.634;7.112;2022-12-18T16:07:13;24.67;;;11.50;;
313;SDS011;143;51.634;7.112;2022-12-18T16:09:39;30.87;;;12.90;;
313;SDS011;143;51.634;7.112;2022-12-18T16:12:05;24.10;;;12.53;;
313;SDS011;143;51.634;7.112;2022-12-18T16:14:36;27.17;;;14.40;;
313;SDS011;143;51.634;7.112;2022-12-18T16:17:03;22.63;;;11.77;;
313;SDS011;143;51.634;7.112;2022-12-18T16:19:33;20.85;;;11.23;;
313;SDS011;143;51.634;7.112;2022-12-18T16:21:59;27.20;;;12.20;;
313;SDS011;143;51.634;7.112;2022-12-18T16:24:29;23.83;;;12.40;;
313;SDS011;143;51.634;7.112;2022-12-18T16:26:57;23.50;;;12.70;;
313;SDS011;143;51.634;7.112;2022-12-18T16:29:24;22.98;;;12.45;;
313;SDS011;143;51.634;7.112;2022-12-18T16:31:58;28.00;;;11.45;;
313;SDS011;143;51.634;7.112;2022-12-18T16:34:26;19.55;;;10.98;;
313;SDS011;143;51.634;7.112;2022-12-18T16:36:55;24.42;;;12.35;;
313;SDS011;143;51.634;7.112;2022-12-18T16:39:22;27.92;;;13.07;;
313;SDS011;143;51.634;7.112;2022-12-18T16:41:47;21.70;;;11.77;;
313;SDS011;143;51.634;7.112;2022-12-18T16:44:14;22.92;;;11.80;;
313;SDS011;143;51.634;7.112;2022-12-18T16:46:40;23.57;;;14.20;;
313;SDS011;143;51.634;7.112;2022-12-18T16:49:08;23.52;;;12.60;;
313;SDS011;143;51.634;7.112;2022-12-18T16:51:35;26.25;;;12.23;;
313;SDS011;143;51.634;7.112;2022-12-18T16:54:01;27.83;;;14.43;;
313;SDS011;143;51.634;7.112;2022-12-18T16:56:26;36.77;;;14.00;;
313;SDS011;143;51.634;7.112;2022-12-18T16:58:53;26.77;;;13.83;;
313;SDS011;143;51.634;7.112;2022-12-18T17:01:20;24.55;;;12.90;;
313;SDS011;143;51.634;7.112;2022-12-18T17:03:53;24.30;;;11.68;;
313;SDS011;143;51.634;7.112;2022-12-18T17:06:20;26.17;;;14.13;;
313;SDS011;143;51.634;7.112;2022-12-18T17:08:47;27.10;;;12.80;;
313;SDS011;143;51.634;7.112;2022-12-18T17:11:13;29.77;;;13.85;;
313;SDS011;143;51.634;7.112;2022-12-18T17:13:39;23.20;;;13.00;;
313;SDS011;143;51.634;7.112;2022-12-18T17:16:05;30.60;;;14.07;;
313;SDS011;143;51.634;7.112;2022-12-18T17:18:32;25.75;;;13.77;;
313;SDS011;143;51.634;7.112;2022-12-18T17:20:59;25.48;;;13.40;;
313;SDS011;143;51.634;7.112;2022-12-18T17:23:26;27.85;;;13.80;;
313;SDS011;143;51.634;7.112;2022-12-18T17:25:53;27.40;;;14.05;;
313;SDS011;143;51.634;7.112;2022-12-18T17:28:20;33.55;;;15.90;;
313;SDS011;143;51.634;7.112;2022-12-18T17:30:47;33.78;;;15.27;;
313;SDS011;143;51.634;7.112;2022-12-18T17:33:13;26.87;;;13.80;;
313;SDS011;143;51.634;7.112;2022-12-18T17:35:38;28.03;;;15.23;;